Time;durP1;ratioP1;P1;durP2;ratioP2;P2;SDS_P1;SDS_P2;PMS_P1;PMS_P2;Temp;Humidity;BMP_temperature;BMP_pressure;BME280_temperature;BME280_humidity;BME280_pressure;Samples;Min_cycle;Max_cycle;Signal;HPM_P1;HPM_P2
2022/07/14 00:00:16;;;;;;;0.40;0.20;;;;;;;17.30;100.00;95726.69;5132131;27;20476;-59
2022/07/14 00:02:45;;;;;;;0.50;0.30;;;;;;;17.09;100.00;95731.69;5133048;27;21070;-59
2022/07/14 00:05:14;;;;;;;0.40;0.20;;;;;;;17.49;100.00;95731.88;5133241;27;20418;-59
2022/07/14 00:07:43;;;;;;;0.40;0.30;;;;;;;17.63;100.00;95719.28;5132971;27;20478;-59
2022/07/14 00:10:13;;;;;;;0.40;0.20;;;;;;;18.13;99.68;95722.63;5133264;27;20518;-59
2022/07/14 00:12:41;;;;;;;0.40;0.30;;;;;;;18.33;99.17;95725.59;5132290;27;20485;-59
2022/07/14 00:15:10;;;;;;;0.40;0.20;;;;;;;18.54;93.25;95723.19;5132866;27;20545;-59
2022/07/14 00:17:39;;;;;;;0.40;0.30;;;;;;;18.69;89.28;95720.09;5132658;27;20454;-59
2022/07/14 00:20:10;;;;;;;0.60;0.30;;;;;;;18.69;88.43;95719.31;5132787;27;20839;-59
2022/07/14 00:22:40;;;;;;;0.40;0.30;;;;;;;18.78;89.99;95725.50;5132769;27;20495;-58
2022/07/14 00:25:09;;;;;;;0.40;0.20;;;;;;;18.82;89.81;95721.09;5133057;27;20455;-58
2022/07/14 00:27:37;;;;;;;0.40;0.20;;;;;;;18.68;93.29;95723.88;5132260;27;20544;-59
2022/07/14 00:30:07;;;;;;;0.50;0.30;;;;;;;18.68;92.48;95717.72;5132662;27;20451;-59
2022/07/14 00:32:36;;;;;;;0.40;0.30;;;;;;;18.40;93.46;95727.81;5132606;27;20513;-59
2022/07/14 00:35:05;;;;;;;0.40;0.20;;;;;;;18.62;92.92;95730.47;5132973;27;20859;-59
2022/07/14 00:37:35;;;;;;;0.40;0.30;;;;;;;18.42;99.44;95722.94;5132392;28;20422;-59
2022/07/14 00:40:05;;;;;;;0.53;0.40;;;;;;;18.64;96.25;95722.94;5132594;28;20526;-58
2022/07/14 00:42:35;;;;;;;0.40;0.20;;;;;;;18.68;94.60;95715.81;5132909;28;20450;-58
2022/07/14 00:45:05;;;;;;;0.40;0.20;;;;;;;18.67;98.52;95716.91;5132792;28;20861;-58
2022/07/14 00:47:34;;;;;;;0.40;0.20;;;;;;;18.59;100.00;95720.38;5132618;28;20455;-58
2022/07/14 00:50:05;;;;;;;0.40;0.20;;;;;;;18.32;99.61;95675.69;5135365;27;20419;-58
2022/07/14 00:52:42;;;;;;;0.60;0.30;;;;;;;18.72;95.86;95735.56;5136673;27;20920;-58
2022/07/14 00:55:12;;;;;;;0.40;0.20;;;;;;;18.67;100.00;95729.56;5136735;27;20466;-58
2022/07/14 00:57:41;;;;;;;0.40;0.20;;;;;;;18.19;98.48;95726.78;5136535;27;20419;-58
2022/07/14 01:00:13;;;;;;;0.50;0.30;;;;;;;18.38;100.00;95725.47;5136541;27;20873;-58
2022/07/14 01:02:42;;;;;;;0.40;0.20;;;;;;;18.26;100.00;95730.59;5136710;27;20431;-58
2022/07/14 01:05:11;;;;;;;0.40;0.20;;;;;;;18.44;99.13;95738.75;5136694;27;20532;-58
2022/07/14 01:07:42;;;;;;;0.40;0.20;;;;;;;18.55;99.62;95751.63;5136415;27;20510;-58
2022/07/14 01:10:10;;;;;;;0.40;0.27;;;;;;;17.74;99.50;95688.44;5136388;27;20979;-58
2022/07/14 01:12:44;;;;;;;0.40;0.30;;;;;;;17.52;100.00;95737.47;5136314;27;20513;-59
2022/07/14 01:15:15;;;;;;;0.77;0.50;;;;;;;17.57;100.00;95739.25;5135703;27;21054;-58
2022/07/14 01:17:43;;;;;;;0.40;0.20;;;;;;;18.05;100.00;95731.41;5136372;27;20473;-59
2022/07/14 01:20:12;;;;;;;0.40;0.20;;;;;;;18.25;100.00;95730.91;5136420;27;20505;-58
2022/07/14 01:22:42;;;;;;;0.40;0.20;;;;;;;18.32;100.00;95709.78;5135929;27;20473;-58
2022/07/14 01:25:12;;;;;;;0.40;0.20;;;;;;;18.51;100.00;95739.91;5135975;27;20454;-58
2022/07/14 01:27:40;;;;;;;0.40;0.20;;;;;;;18.54;96.74;95747.38;5135604;27;21195;-58
2022/07/14 01:30:10;;;;;;;0.40;0.20;;;;;;;18.56;96.61;95723.69;5135766;27;20497;-58
2022/07/14 01:32:39;;;;;;;0.40;0.30;;;;;;;18.59;92.88;95722.28;5135760;27;20448;-58
2022/07/14 01:35:08;;;;;;;0.40;0.20;;;;;;;17.84;98.35;95736.47;5136094;27;20419;-58
2022/07/14 01:37:37;;;;;;;0.40;0.20;;;;;;;17.25;100.00;95717.97;5135686;27;20873;-58
2022/07/14 01:40:09;;;;;;;0.43;0.27;;;;;;;17.76;100.00;95739.88;5135940;27;20501;-58
2022/07/14 01:42:38;;;;;;;0.40;0.20;;;;;;;18.08;100.00;95741.53;5135795;27;20455;-58
2022/07/14 01:45:08;;;;;;;0.40;0.30;;;;;;;18.05;98.41;95739.44;5135806;27;20932;-58
2022/07/14 01:47:37;;;;;;;0.40;0.20;;;;;;;17.71;100.00;95734.63;5135456;27;20522;-58
2022/07/14 01:50:06;;;;;;;0.40;0.20;;;;;;;17.81;100.00;95734.38;5135587;27;20521;-58
2022/07/14 01:52:34;;;;;;;0.40;0.20;;;;;;;18.04;100.00;95737.84;5135416;27;20880;-58
2022/07/14 01:55:03;;;;;;;0.40;0.20;;;;;;;18.21;99.31;95728.06;5135685;27;20419;-58
2022/07/14 01:57:33;;;;;;;0.40;0.30;;;;;;;18.25;96.84;95728.22;5135398;27;20894;-58
2022/07/14 02:00:01;;;;;;;0.40;0.30;;;;;;;17.87;100.00;95751.94;5135455;27;20535;-58
2022/07/14 02:02:29;;;;;;;0.43;0.30;;;;;;;17.01;100.00;95751.13;5135239;27;20984;-57
2022/07/14 02:04:58;;;;;;;0.40;0.27;;;;;;;16.94;100.00;95766.81;5135219;27;20431;-58
2022/07/14 02:07:26;;;;;;;0.40;0.20;;;;;;;17.33;100.00;95749.41;5134748;27;20450;-58
2022/07/14 02:12:42;;;;;;;0.40;0.30;;;;;;;17.97;100.00;95750.91;5135060;27;20561;-58
2022/07/14 02:15:11;;;;;;;0.40;0.20;;;;;;;18.07;100.00;95742.63;5134690;27;20569;-58
2022/07/14 02:17:39;;;;;;;0.97;0.93;;;;;;;17.55;100.00;95739.56;5134913;27;20448;-57
2022/07/14 02:20:10;;;;;;;0.50;0.30;;;;;;;17.42;100.00;95747.59;5135006;27;20497;-58
2022/07/14 02:22:40;;;;;;;0.40;0.20;;;;;;;17.47;100.00;95742.94;5135423;27;20450;-58
2022/07/14 02:25:09;;;;;;;0.40;0.30;;;;;;;17.65;100.00;95739.34;5134960;27;20426;-57
2022/07/14 02:27:38;;;;;;;0.40;0.20;;;;;;;17.75;100.00;95747.16;5134727;27;20839;-57
2022/07/14 02:30:08;;;;;;;0.50;0.50;;;;;;;17.71;100.00;95743.47;5134948;27;20458;-58
2022/07/14 02:32:37;;;;;;;0.40;0.20;;;;;;;17.73;100.00;95752.00;5134746;27;20423;-58
2022/07/14 02:35:06;;;;;;;0.40;0.30;;;;;;;17.59;100.00;95758.50;5134778;27;20442;-58
2022/07/14 02:37:34;;;;;;;0.40;0.30;;;;;;;17.55;100.00;95754.84;5134831;27;20665;-58
2022/07/14 02:40:03;;;;;;;0.40;0.20;;;;;;;17.23;100.00;95702.19;5134922;27;20493;-58
2022/07/14 02:42:31;;;;;;;0.40;0.20;;;;;;;17.78;100.00;95757.22;5134558;27;20810;-58
2022/07/14 02:45:00;;;;;;;0.40;0.20;;;;;;;17.26;100.00;95684.72;5134753;27;20502;-58
2022/07/14 02:47:30;;;;;;;0.40;0.30;;;;;;;17.89;100.00;95759.69;5134646;27;20423;-58
2022/07/14 02:49:59;;;;;;;0.40;0.20;;;;;;;17.65;100.00;95766.13;5134288;27;21022;-58
2022/07/14 02:52:27;;;;;;;0.40;0.27;;;;;;;17.61;100.00;95772.38;5134102;27;20485;-58
2022/07/14 02:54:56;;;;;;;0.40;0.30;;;;;;;17.70;100.00;95774.06;5133855;27;20518;-58
2022/07/14 02:57:24;;;;;;;0.40;0.20;;;;;;;17.70;100.00;95767.91;5134696;27;20427;-58
2022/07/14 02:59:52;;;;;;;0.40;0.30;;;;;;;16.71;100.00;95706.22;5134314;27;20514;-58
2022/07/14 03:02:21;;;;;;;0.40;0.20;;;;;;;17.39;100.00;95783.81;5134203;27;20431;-58
2022/07/14 03:04:51;;;;;;;0.40;0.30;;;;;;;17.53;100.00;95771.22;5133370;27;20425;-58
2022/07/14 03:07:20;;;;;;;0.40;0.30;;;;;;;17.71;100.00;95783.69;5134124;27;20430;-57
2022/07/14 03:09:49;;;;;;;0.40;0.30;;;;;;;17.52;100.00;95776.84;5133910;27;20976;-57
2022/07/14 03:12:18;;;;;;;0.40;0.20;;;;;;;17.48;100.00;95773.97;5133283;27;20431;-58
2022/07/14 03:14:46;;;;;;;0.50;0.30;;;;;;;17.49;100.00;95772.09;5133076;27;20526;-57
2022/07/14 03:17:16;;;;;;;0.40;0.20;;;;;;;17.40;100.00;95777.38;5133942;27;20478;-57
2022/07/14 03:19:45;;;;;;;0.63;0.50;;;;;;;17.32;100.00;95785.34;5134279;27;20415;-57
2022/07/14 03:22:15;;;;;;;0.40;0.20;;;;;;;17.57;100.00;95785.63;5134124;27;20454;-58
2022/07/14 03:24:43;;;;;;;0.40;0.30;;;;;;;17.45;100.00;95771.91;5133743;27;20434;-57
2022/07/14 03:27:12;;;;;;;0.40;0.20;;;;;;;17.52;100.00;95783.03;5133727;27;20454;-57
2022/07/14 03:29:41;;;;;;;0.40;0.30;;;;;;;16.98;100.00;95783.84;5133683;27;20493;-57
2022/07/14 03:32:10;;;;;;;0.40;0.30;;;;;;;17.14;100.00;95787.03;5133531;27;20427;-57
2022/07/14 03:34:38;;;;;;;0.40;0.30;;;;;;;17.48;100.00;95786.59;5133470;27;20882;-57
2022/07/14 03:37:06;;;;;;;0.40;0.20;;;;;;;17.34;100.00;95781.25;5133508;27;20440;-57
2022/07/14 03:39:37;;;;;;;0.40;0.30;;;;;;;16.74;100.00;95788.63;5133431;27;20422;-57
2022/07/14 03:42:06;;;;;;;0.40;0.20;;;;;;;15.70;100.00;95710.69;5133370;27;20465;-57
2022/07/14 03:44:34;;;;;;;0.40;0.20;;;;;;;16.79;100.00;95791.19;5133464;27;20422;-57
2022/07/14 03:47:03;;;;;;;0.40;0.30;;;;;;;17.22;100.00;95785.53;5133113;27;20445;-53
2022/07/14 03:49:31;;;;;;;0.53;0.40;;;;;;;17.53;100.00;95778.47;5133240;27;20878;-53
2022/07/14 03:52:00;;;;;;;0.40;0.30;;;;;;;17.92;100.00;95777.84;5133180;27;20928;-53
2022/07/14 03:54:28;;;;;;;0.40;0.30;;;;;;;18.18;100.00;95784.22;5133163;27;20522;-54
2022/07/14 03:56:58;;;;;;;0.40;0.20;;;;;;;18.25;100.00;95782.69;5133602;27;20431;-54
2022/07/14 03:59:27;;;;;;;0.90;0.60;;;;;;;18.32;100.00;95787.59;5133200;27;20430;-54
2022/07/14 04:01:56;;;;;;;0.40;0.20;;;;;;;18.60;100.00;95778.31;5133403;27;20439;-55
2022/07/14 04:04:24;;;;;;;0.40;0.20;;;;;;;18.72;100.00;95789.28;5133607;27;20845;-53
2022/07/14 04:06:53;;;;;;;0.40;0.30;;;;;;;18.81;100.00;95792.81;5132939;27;20477;-53
2022/07/14 04:09:21;;;;;;;0.40;0.30;;;;;;;18.74;100.00;95787.09;5132525;27;20455;-53
2022/07/14 04:11:49;;;;;;;0.40;0.20;;;;;;;18.74;100.00;95791.69;5133202;27;20427;-53
2022/07/14 04:14:21;;;;;;;0.40;0.30;;;;;;;18.55;100.00;95799.13;5132472;27;20534;-53
2022/07/14 04:16:49;;;;;;;0.40;0.30;;;;;;;18.67;100.00;95794.00;5132805;27;20451;-53
2022/07/14 04:19:18;;;;;;;0.77;0.77;;;;;;;18.15;100.00;95800.91;5133187;27;20456;-54
2022/07/14 04:21:46;;;;;;;0.40;0.30;;;;;;;18.23;100.00;95802.88;5132116;27;20466;-54
2022/07/14 04:24:15;;;;;;;0.40;0.30;;;;;;;18.47;100.00;95800.69;5131907;27;20983;-54
2022/07/14 04:26:43;;;;;;;0.40;0.30;;;;;;;18.85;100.00;95799.16;5132972;27;20423;-54
2022/07/14 04:29:12;;;;;;;0.50;0.30;;;;;;;19.01;100.00;95794.16;5132822;27;20430;-54
2022/07/14 04:31:42;;;;;;;0.40;0.30;;;;;;;18.41;100.00;95796.53;5132600;27;20490;-54
2022/07/14 04:34:11;;;;;;;0.40;0.30;;;;;;;18.64;100.00;95782.00;5132401;27;21008;-54
2022/07/14 04:36:39;;;;;;;0.40;0.20;;;;;;;19.14;100.00;95803.22;5132642;27;20423;-54
2022/07/14 04:39:08;;;;;;;0.40;0.30;;;;;;;17.84;100.00;95741.03;5132459;28;20435;-54
2022/07/14 04:41:40;;;;;;;0.70;0.70;;;;;;;18.03;100.00;95808.72;5132939;28;20429;-54
2022/07/14 04:44:08;;;;;;;0.70;0.70;;;;;;;18.21;100.00;95802.38;5133074;28;20431;-54
2022/07/14 04:46:37;;;;;;;0.60;0.57;;;;;;;18.05;100.00;95803.84;5132851;28;20866;-54
2022/07/14 04:52:04;;;;;;;0.40;0.20;;;;;;;19.00;100.00;95784.50;5132381;28;21002;-55
2022/07/14 04:54:35;;;;;;;0.40;0.30;;;;;;;18.99;100.00;95805.22;5132776;28;20427;-55
2022/07/14 04:57:05;;;;;;;0.40;0.20;;;;;;;18.22;100.00;95796.69;5132192;28;20474;-55
2022/07/14 04:59:33;;;;;;;0.60;0.50;;;;;;;17.77;100.00;95779.81;5132026;28;20510;-55
2022/07/14 05:02:02;;;;;;;0.40;0.27;;;;;;;17.82;100.00;95800.34;5132320;28;20517;-54
2022/07/14 05:04:32;;;;;;;0.50;0.40;;;;;;;17.88;100.00;95768.84;5132414;28;20417;-54
2022/07/14 05:07:02;;;;;;;0.83;0.40;;;;;;;17.69;100.00;95718.06;5132184;28;20422;-56
2022/07/14 05:09:33;;;;;;;3.03;0.50;;;;;;;18.96;100.00;95815.78;5132287;28;20464;-55
2022/07/14 05:12:02;;;;;;;1.07;0.97;;;;;;;19.43;100.00;95814.25;5132298;28;20506;-55
2022/07/14 05:14:31;;;;;;;0.60;0.60;;;;;;;19.43;100.00;95814.25;5131990;28;20565;-55
2022/07/14 05:17:00;;;;;;;0.50;0.40;;;;;;;19.67;100.00;95803.06;5132055;28;20530;-55
2022/07/14 05:19:46;;;;;;;0.50;0.50;;;;;;;19.68;100.00;95808.13;5132138;28;20487;-55
2022/07/14 05:22:15;;;;;;;0.40;0.20;;;;;;;19.70;100.00;95749.44;5131531;28;20483;-55
2022/07/14 05:24:44;;;;;;;0.60;0.30;;;;;;;20.02;100.00;95807.34;5132325;28;20455;-55
2022/07/14 05:27:12;;;;;;;0.50;0.40;;;;;;;19.74;100.00;95800.69;5132076;28;20441;-55
2022/07/14 05:29:41;;;;;;;0.40;0.30;;;;;;;19.85;100.00;95800.06;5132143;28;20411;-56
2022/07/14 05:32:10;;;;;;;0.40;0.30;;;;;;;20.02;99.84;95801.97;5131892;28;21058;-56
2022/07/14 05:34:42;;;;;;;0.40;0.30;;;;;;;20.54;92.01;95800.06;5132444;27;20517;-57
2022/07/14 05:37:12;;;;;;;0.70;0.60;;;;;;;20.57;80.63;95800.19;5136141;27;20431;-57
2022/07/14 05:39:41;;;;;;;0.40;0.20;;;;;;;20.06;86.46;95795.63;5136159;27;20848;-57
2022/07/14 05:42:10;;;;;;;0.40;0.30;;;;;;;20.56;90.96;95797.81;5135710;27;20470;-57
2022/07/14 05:44:38;;;;;;;0.40;0.27;;;;;;;20.86;87.96;95792.19;5135243;27;20434;-58
2022/07/14 05:47:07;;;;;;;0.40;0.30;;;;;;;20.73;79.91;95733.13;5135722;27;20481;-59
2022/07/14 05:49:36;;;;;;;0.43;0.27;;;;;;;21.32;78.56;95796.00;5135991;27;20445;-60
2022/07/14 05:52:05;;;;;;;0.40;0.30;;;;;;;21.36;74.98;95792.31;5135693;27;21038;-59
2022/07/14 05:54:35;;;;;;;0.60;0.40;;;;;;;20.44;80.24;95797.69;5135555;27;20900;-59
2022/07/14 05:57:04;;;;;;;0.50;0.30;;;;;;;20.53;81.78;95798.47;5135729;27;20497;-59
2022/07/14 05:59:32;;;;;;;0.40;0.30;;;;;;;20.95;83.80;95799.47;5135319;27;20522;-59
2022/07/14 06:02:16;;;;;;;0.40;0.30;;;;;;;21.09;80.23;95787.38;5135280;27;20430;-60
2022/07/14 06:04:45;;;;;;;0.40;0.23;;;;;;;21.35;77.96;95793.41;5135334;27;20954;-59
2022/07/14 06:07:13;;;;;;;0.40;0.27;;;;;;;21.58;74.36;95791.22;5135251;27;20513;-59
2022/07/14 06:09:43;;;;;;;0.50;0.30;;;;;;;21.83;72.77;95792.19;5135121;27;20479;-59
2022/07/14 06:12:12;;;;;;;0.50;0.30;;;;;;;21.83;69.97;95792.19;5135348;27;20501;-59
2022/07/14 06:14:40;;;;;;;0.60;0.60;;;;;;;22.39;70.08;95782.69;5134746;27;20531;-59
2022/07/14 06:17:09;;;;;;;0.40;0.30;;;;;;;22.75;63.60;95785.50;5134776;27;20553;-59
2022/07/14 06:19:38;;;;;;;0.40;0.20;;;;;;;22.52;64.29;95739.16;5135009;27;20871;-59
2022/07/14 06:22:07;;;;;;;0.60;0.40;;;;;;;23.03;64.29;95766.75;5135301;27;21122;-59
2022/07/14 06:24:37;;;;;;;0.40;0.40;;;;;;;22.97;64.23;95768.88;5135217;27;20487;-58
2022/07/14 06:27:16;;;;;;;1.07;0.50;;;;;;;22.71;64.45;95763.00;5134790;27;20426;-58
2022/07/14 06:29:44;;;;;;;0.40;0.30;;;;;;;22.77;63.68;95774.38;5135043;27;20434;-58
2022/07/14 06:32:12;;;;;;;0.57;0.57;;;;;;;23.11;64.56;95766.66;5134794;27;20565;-58
2022/07/14 06:34:41;;;;;;;0.50;0.40;;;;;;;22.75;61.16;95764.69;5134924;27;20423;-58
2022/07/14 06:37:09;;;;;;;0.40;0.30;;;;;;;22.55;65.84;95770.91;5134869;27;20468;-58
2022/07/14 06:39:39;;;;;;;0.97;0.97;;;;;;;22.62;66.37;95773.88;5135126;27;20466;-58
2022/07/14 06:42:07;;;;;;;0.80;0.60;;;;;;;23.51;68.78;95766.75;5134449;27;20505;-58
2022/07/14 06:44:37;;;;;;;0.50;0.30;;;;;;;24.05;66.34;95766.41;5134608;27;20996;-58
2022/07/14 06:47:05;;;;;;;2.47;1.07;;;;;;;23.31;62.77;95748.72;5133549;27;20514;-58
2022/07/14 06:49:34;;;;;;;0.43;0.37;;;;;;;23.34;64.35;95753.44;5134508;27;20427;-58
2022/07/14 06:52:02;;;;;;;0.47;0.47;;;;;;;24.06;62.41;95757.19;5133729;27;20561;-58
2022/07/14 06:54:30;;;;;;;0.40;0.30;;;;;;;24.51;59.27;95744.13;5134455;27;20418;-58
2022/07/14 06:56:59;;;;;;;0.50;0.33;;;;;;;24.81;57.51;95749.97;5134723;27;20944;-58
2022/07/14 06:59:27;;;;;;;0.50;0.40;;;;;;;24.22;56.77;95730.94;5134444;27;20427;-58
2022/07/14 07:01:57;;;;;;;0.47;0.30;;;;;;;24.41;57.43;95742.69;5134324;27;20509;-58
2022/07/14 07:04:26;;;;;;;0.80;0.80;;;;;;;25.30;56.85;95734.88;5134143;27;20438;-57
2022/07/14 07:06:55;;;;;;;0.97;0.97;;;;;;;25.24;55.53;95730.88;5134329;27;20935;-58
2022/07/14 07:09:24;;;;;;;0.60;0.40;;;;;;;25.16;53.99;95729.94;5134035;27;20465;-58
2022/07/14 07:11:52;;;;;;;0.50;0.50;;;;;;;25.00;49.47;95715.56;5133978;27;20513;-58
2022/07/14 07:14:21;;;;;;;0.40;0.40;;;;;;;25.87;52.44;95726.09;5133539;27;20470;-58
2022/07/14 07:16:50;;;;;;;0.50;0.40;;;;;;;25.45;52.83;95731.38;5133774;27;20542;-58
2022/07/14 07:19:20;;;;;;;0.43;0.37;;;;;;;24.30;57.80;95724.59;5134241;27;20430;-58
2022/07/14 07:21:49;;;;;;;0.40;0.40;;;;;;;25.45;57.69;95714.31;5133688;27;20519;-59
2022/07/14 07:24:17;;;;;;;0.40;0.27;;;;;;;25.77;55.15;95710.38;5133811;27;20414;-59
2022/07/14 07:26:46;;;;;;;0.40;0.27;;;;;;;25.51;52.30;95707.47;5133731;27;20454;-58
2022/07/14 07:29:14;;;;;;;0.40;0.30;;;;;;;25.56;52.96;95699.03;5133962;27;20904;-59
2022/07/14 07:31:43;;;;;;;0.40;0.30;;;;;;;25.11;55.10;95710.41;5133563;27;20549;-58
2022/07/14 07:34:11;;;;;;;0.40;0.30;;;;;;;25.58;53.16;95702.19;5133484;27;20431;-57
2022/07/14 07:36:41;;;;;;;0.40;0.30;;;;;;;25.61;50.73;95682.47;5133270;27;20438;-58
2022/07/14 07:39:30;;;;;;;0.40;0.30;;;;;;;25.88;53.34;95694.31;5133438;27;20442;-59
2022/07/14 07:42:01;;;;;;;0.40;0.30;;;;;;;26.03;54.51;95691.53;5133983;27;20487;-58
2022/07/14 07:44:30;;;;;;;0.53;0.50;;;;;;;26.62;51.14;95699.22;5133530;27;20962;-58
2022/07/14 07:46:59;;;;;;;0.50;0.40;;;;;;;26.81;46.09;95657.63;5133704;27;20437;-59
2022/07/14 07:49:27;;;;;;;0.50;0.40;;;;;;;27.55;47.21;95691.44;5133739;27;20406;-60
2022/07/14 07:52:01;;;;;;;0.30;0.30;;;;;;;28.14;44.47;95677.00;5133366;27;20498;-60
2022/07/14 07:54:30;;;;;;;0.40;0.30;;;;;;;27.43;43.14;95680.72;5133266;27;20423;-59
2022/07/14 07:57:19;;;;;;;0.50;0.40;;;;;;;26.97;44.25;95677.28;5132851;27;21031;-59
2022/07/14 07:59:49;;;;;;;0.40;0.30;;;;;;;27.89;43.28;95667.72;5133500;27;20422;-59
2022/07/14 08:02:17;;;;;;;0.30;0.27;;;;;;;27.83;42.59;95669.22;5133330;27;20419;-58
2022/07/14 08:04:47;;;;;;;0.40;0.30;;;;;;;27.81;42.34;95669.56;5133408;27;20835;-58
2022/07/14 08:07:17;;;;;;;0.40;0.40;;;;;;;27.56;43.29;95660.31;5132752;27;20426;-58
2022/07/14 08:09:46;;;;;;;0.40;0.30;;;;;;;27.52;43.82;95656.75;5133417;27;20446;-58
2022/07/14 08:12:14;;;;;;;0.40;0.30;;;;;;;27.47;40.98;95655.16;5132831;27;20498;-58
2022/07/14 08:14:52;;;;;;;0.90;0.53;;;;;;;27.31;41.64;95653.72;5132964;27;20535;-58
2022/07/14 08:17:22;;;;;;;0.60;0.50;;;;;;;27.76;40.82;95650.84;5133433;27;20457;-58
2022/07/14 08:19:51;;;;;;;0.30;0.20;;;;;;;27.38;40.44;95640.19;5132910;27;20982;-58
2022/07/14 08:22:25;;;;;;;0.30;0.27;;;;;;;27.84;41.28;95608.91;5133121;27;20427;-57
2022/07/14 08:24:54;;;;;;;0.40;0.30;;;;;;;28.52;39.13;95633.00;5132764;27;20506;-57
2022/07/14 08:27:24;;;;;;;0.40;0.30;;;;;;;28.98;39.55;95632.59;5132796;27;20472;-72
2022/07/14 08:29:52;;;;;;;1.17;0.63;;;;;;;29.86;36.34;95628.47;5133271;27;20539;-68
2022/07/14 08:32:35;;;;;;;0.50;0.40;;;;;;;29.81;36.79;95619.84;5132770;27;21034;-71
2022/07/14 08:35:05;;;;;;;0.30;0.30;;;;;;;29.30;35.30;95500.63;5132712;27;20924;-72
2022/07/14 08:37:35;;;;;;;0.40;0.30;;;;;;;30.64;35.44;95621.22;5132882;27;20473;-71
2022/07/14 08:40:06;;;;;;;0.40;0.30;;;;;;;29.93;36.43;95609.34;5132883;27;20501;-72
2022/07/14 08:42:36;;;;;;;0.57;0.50;;;;;;;30.02;35.57;95578.94;5132872;28;20947;-72
2022/07/14 08:45:08;;;;;;;0.53;0.47;;;;;;;30.27;37.19;95579.75;5132876;28;20423;-71
2022/07/14 08:47:38;;;;;;;0.50;0.30;;;;;;;29.79;35.50;95603.84;5132373;28;20943;-72
2022/07/14 08:50:08;;;;;;;0.30;0.20;;;;;;;30.43;34.99;95593.88;5132485;28;20842;-71
2022/07/14 08:52:39;;;;;;;0.40;0.30;;;;;;;30.43;35.63;95595.81;5132264;28;20474;-70
2022/07/14 08:55:09;;;;;;;0.40;0.30;;;;;;;31.13;33.72;95586.81;5131482;28;21191;-70
2022/07/14 08:57:41;;;;;;;0.40;0.30;;;;;;;31.08;33.00;95554.34;5131719;28;20430;-71
2022/07/14 09:00:12;;;;;;;0.30;0.30;;;;;;;31.34;32.77;95582.09;5131771;28;20426;-68
2022/07/14 09:02:48;;;;;;;1.23;0.37;;;;;;;30.52;34.30;95588.78;5132722;28;20856;-69
2022/07/14 09:05:41;;;;;;;0.40;0.30;;;;;;;31.24;34.07;95563.72;5132420;28;21036;-68
2022/07/14 09:08:17;;;;;;;0.60;0.50;;;;;;;31.27;32.18;95582.06;5133520;28;20455;-67
2022/07/14 09:10:47;;;;;;;0.30;0.30;;;;;;;31.54;32.97;95521.34;5138837;27;20445;-65
2022/07/14 09:13:32;;;;;;;0.30;0.20;;;;;;;32.60;29.05;95565.41;5140589;27;20477;-67
2022/07/14 09:16:17;;;;;;;0.40;0.30;;;;;;;32.35;33.42;95516.19;5136759;27;20527;-66
2022/07/14 09:19:07;;;;;;;0.40;0.30;;;;;;;32.27;32.26;95514.66;5136509;27;20431;-65
2022/07/14 09:21:37;;;;;;;1.63;1.23;;;;;;;32.70;28.26;95534.31;5135336;27;20919;-64
2022/07/14 09:24:08;;;;;;;0.40;0.30;;;;;;;32.88;28.42;95558.88;5136226;27;20500;-65
2022/07/14 09:26:44;;;;;;;0.40;0.30;;;;;;;32.28;27.79;95554.66;5136373;27;20460;-63
2022/07/14 09:29:21;;;;;;;0.50;0.30;;;;;;;31.35;28.03;95486.97;5136467;27;20510;-64
2022/07/14 09:31:49;;;;;;;0.40;0.40;;;;;;;32.60;27.90;95526.97;5136155;27;20455;-63
2022/07/14 09:34:27;;;;;;;0.40;0.30;;;;;;;32.58;27.07;95546.59;5135975;27;20564;-63
2022/07/14 09:37:13;;;;;;;0.30;0.20;;;;;;;33.10;26.51;95541.03;5136070;27;20429;-62
2022/07/14 09:39:53;;;;;;;0.40;0.30;;;;;;;33.88;26.30;95544.41;5135648;27;20425;-62
2022/07/14 09:42:22;;;;;;;0.30;0.30;;;;;;;33.80;26.95;95526.44;5135292;27;20434;-62
2022/07/14 09:45:09;;;;;;;0.30;0.27;;;;;;;33.19;26.09;95505.63;5135364;27;20488;-61
2022/07/14 09:47:53;;;;;;;0.30;0.20;;;;;;;33.25;27.35;95531.44;5136010;27;20479;-62
2022/07/14 09:50:39;;;;;;;0.30;0.20;;;;;;;33.86;27.50;95535.81;5136062;27;20904;-62
2022/07/14 09:53:18;;;;;;;0.30;0.20;;;;;;;34.10;25.31;95522.94;5135597;27;20470;-63
2022/07/14 09:55:59;;;;;;;0.47;0.47;;;;;;;34.26;26.23;95531.31;5135750;27;20514;-62
2022/07/14 09:58:29;;;;;;;0.30;0.20;;;;;;;34.39;26.03;95521.28;5135851;27;20474;-62
2022/07/14 10:01:08;;;;;;;0.40;0.30;;;;;;;33.65;24.42;95522.31;5135759;27;20425;-62
2022/07/14 10:03:39;;;;;;;0.40;0.30;;;;;;;34.14;24.52;95517.34;5135180;27;20784;-63
2022/07/14 10:06:10;;;;;;;0.40;0.30;;;;;;;34.47;24.67;95514.47;5135591;27;20435;-62
2022/07/14 10:09:00;;;;;;;0.40;0.30;;;;;;;34.47;23.75;95511.72;5134892;27;20459;-62
2022/07/14 10:11:30;;;;;;;0.30;0.20;;;;;;;34.37;23.86;95507.16;5134339;27;20426;-62
2022/07/14 10:14:00;;;;;;;0.50;0.50;;;;;;;34.14;24.13;95506.34;5134779;27;21005;-62
2022/07/14 10:16:32;;;;;;;0.30;0.30;;;;;;;34.49;23.57;95511.28;5135237;27;20431;-62
2022/07/14 10:19:02;;;;;;;0.30;0.30;;;;;;;34.34;24.46;95507.22;5135435;27;20462;-62
2022/07/14 10:21:39;;;;;;;0.40;0.30;;;;;;;34.88;23.55;95507.91;5134038;27;20487;-61
2022/07/14 10:24:09;;;;;;;6.63;0.30;;;;;;;34.03;23.30;95497.47;5135115;27;20436;-61
2022/07/14 10:26:39;;;;;;;0.30;0.20;;;;;;;34.23;22.87;95474.34;5135069;27;20441;-61
2022/07/14 10:29:09;;;;;;;0.30;0.20;;;;;;;34.20;26.71;95499.19;5135322;27;20455;-61
2022/07/14 10:31:51;;;;;;;0.30;0.20;;;;;;;34.88;23.16;95492.16;5135248;27;20429;-61
2022/07/14 10:34:30;;;;;;;0.40;0.30;;;;;;;34.51;24.09;95492.38;5133271;27;20471;-61
2022/07/14 10:37:04;;;;;;;0.30;0.20;;;;;;;34.09;23.31;95482.84;5135086;27;20806;-62
2022/07/14 10:39:48;;;;;;;0.30;0.30;;;;;;;34.74;23.81;95486.09;5135088;27;20462;-61
2022/07/14 10:42:28;;;;;;;2.10;0.30;;;;;;;35.19;23.42;95478.22;5134609;27;20516;-62
2022/07/14 10:44:57;;;;;;;4.03;0.57;;;;;;;34.69;23.81;95475.56;5134703;27;20433;-62
2022/07/14 10:47:44;;;;;;;0.30;0.30;;;;;;;34.46;24.09;95462.56;5134644;27;20519;-61
2022/07/14 10:50:13;;;;;;;0.30;0.20;;;;;;;34.45;24.38;95466.53;5134610;27;20419;-61
2022/07/14 10:52:58;;;;;;;0.33;0.27;;;;;;;35.00;24.60;95463.19;5134639;27;20440;-62
2022/07/14 10:55:36;;;;;;;9.73;0.37;;;;;;;35.35;23.93;95456.22;5134740;27;20460;-61
2022/07/14 10:58:31;;;;;;;0.30;0.30;;;;;;;35.30;24.41;95453.94;5133758;27;20528;-61
2022/07/14 11:01:01;;;;;;;0.30;0.20;;;;;;;35.14;23.76;95440.13;5134538;27;20423;-61
2022/07/14 11:03:46;;;;;;;0.40;0.30;;;;;;;35.12;23.00;95450.81;5134288;27;20433;-62
2022/07/14 11:06:18;;;;;;;0.50;0.30;;;;;;;34.90;22.30;95447.66;5134107;27;20420;-61
2022/07/14 11:09:40;;;;;;;0.40;0.30;;;;;;;34.31;23.21;95444.75;5134101;27;20444;-61
2022/07/14 11:12:13;;;;;;;0.40;0.37;;;;;;;34.34;23.08;95438.41;5134228;27;20518;-62
2022/07/14 11:14:44;;;;;;;0.30;0.30;;;;;;;34.37;24.13;95443.84;5133796;27;20489;-63
2022/07/14 11:17:37;;;;;;;0.30;0.20;;;;;;;35.20;23.06;95430.16;5134337;27;20499;-61
2022/07/14 11:20:10;;;;;;;0.30;0.30;;;;;;;36.10;21.74;95425.81;5127322;27;20443;-62
2022/07/14 11:22:40;;;;;;;0.40;0.30;;;;;;;36.14;21.43;95426.50;5133944;27;20525;-62
2022/07/14 11:25:26;;;;;;;0.30;0.20;;;;;;;35.32;20.31;95435.03;5133813;27;20430;-65
2022/07/14 11:27:55;;;;;;;0.30;0.20;;;;;;;35.83;20.73;95423.25;5134729;27;21009;-60
2022/07/14 11:30:31;;;;;;;0.30;0.20;;;;;;;35.45;21.64;95417.41;5136695;27;20466;-60
2022/07/14 11:33:07;;;;;;;0.40;0.30;;;;;;;35.39;22.31;95427.38;5133290;27;20776;-61
2022/07/14 11:38:30;;;;;;;0.30;0.20;;;;;;;34.93;21.76;95413.75;5133649;27;20949;-62
2022/07/14 11:40:59;;;;;;;0.30;0.20;;;;;;;35.40;21.18;95415.16;5133734;27;20865;-59
2022/07/14 11:43:40;;;;;;;0.30;0.20;;;;;;;35.87;21.84;95412.16;5114942;27;20432;-68
2022/07/14 11:46:31;;;;;;;0.50;0.30;;;;;;;34.48;21.76;95383.88;5133660;27;20452;-65
2022/07/14 11:49:10;;;;;;;0.30;0.27;;;;;;;34.58;21.87;95414.44;5133496;27;20195;-65
2022/07/14 11:51:39;;;;;;;0.30;0.30;;;;;;;34.26;22.13;95412.19;5133440;27;20931;-64
2022/07/14 11:54:09;;;;;;;0.50;0.40;;;;;;;34.62;22.09;95407.66;5133248;27;20921;-65
2022/07/14 11:56:39;;;;;;;0.40;0.30;;;;;;;33.77;22.44;95334.03;5133436;27;20429;-66